NEODyS-2

Near Earth Objects - Dynamic Site
NEODyS ∴ Observatories ∴ Site 691 ∴ Obs & residuals
Contact »
691  ▹ 
OBSERVATIONS AND RESIDUALS

691-Steward Observatory, Kitt Peak-Spacewatch

Detections | Residuals | Detections & Residuals

[1-200] [201-400] [401-600] [601-800] [801-1000] [1001-1200] [1201-1400] [1401-1600] [1601-1800] [1801-2000] [2001-2200] [2201-2400] [2401-2600] [2601-2800] [2801-3000] [3001-3200] [3201-3400] [3401-3600] [3601-3800] [3801-4000] [4001-4200] [4201-4400] [4401-4600] [4601-4800] [4801-5000] [5001-5200] [5201-5400] [5401-5600] [5601-5800] [5801-6000] [6001-6200] [6201-6400] [6401-6600] [6601-6800] [6801-7000] [7001-7200] [7201-7400] [7401-7600] [7601-7800] [7801-8000] [8001-8200] [8201-8400] [8401-8600] [8601-8800] [8801-9000] [9001-9200] [9201-9400] [9401-9600] [9601-9800] [9801-10000] [10001-10200] [10201-10400] [10401-10600] [10601-10800] [10801-11000] [11001-11200] [11201-11400] [11401-11600] [11601-11800] [11801-12000] [12001-12200] [12201-12400] [12401-12600] [12601-12800] [12801-13000] [13001-13200] [13201-13400] [13401-13600] [13601-13800] [13801-14000] [14001-14200] [14201-14400] [14401-14600] [14601-14800] [14801-15000] [15001-15200] [15201-15400] [15401-15600] [15601-15800] [15801-16000] [16001-16200] [16201-16400] [16401-16600] [16601-16800] [16801-17000] [17001-17200] [17201-17400] [17401-17600] [17601-17800] [17801-18000] [18001-18200] [18201-18400] [18401-18600] [18601-18800] [18801-19000] [19001-19200] [19201-19400] [19401-19600] [19601-19800] [19801-20000] [20001-20200] [20201-20400] [20401-20600] [20601-20800] [20801-21000] [21001-21200] [21201-21400] [21401-21600] [21601-21800] [21801-22000] [22001-22200] [22201-22400] [22401-22600] [22601-22800] [22801-23000] [23001-23200] [23201-23400] [23401-23600] [23601-23800] [23801-24000] [24001-24200] [24201-24400] [24401-24600] [24601-24800] [24801-25000] [25001-25200] [25201-25400] [25401-25600] [25601-25800] [25801-26000] [26001-26200] [26201-26400] [26401-26600] [26601-26800] [26801-27000] [27001-27200] [27201-27400] [27401-27600] [27601-27800] [27801-28000] [28001-28200] [28201-28400] [28401-28600] [28601-28800] [28801-29000] [29001-29200] [29201-29400] [29401-29600] [29601-29800] [29801-30000] [30001-30200] [30201-30400] [30401-30600] [30601-30800] [30801-31000] [31001-31200] [31201-31400] [31401-31600] [31601-31800] [31801-32000] [32001-32200] [32201-32400] [32401-32600] [32601-32800] [32801-33000] [33001-33200] [33201-33400] [33401-33600] [33601-33800] [33801-34000] [34001-34200] [34201-34400] [34401-34600] [34601-34800] [34801-35000] [35001-35200] [35201-35400] [35401-35600] [35601-35800] [35801-36000] [36001-36200] [36201-36400] [36401-36600] [36601-36800] [36801-37000] [37001-37200] [37201-37400] [37401-37600] [37601-37800] [37801-38000] [38001-38200] [38201-38400] [38401-38600] [38601-38800] [38801-39000] [39001-39200] [39201-39400] [39401-39600] [39601-39800] [39801-40000] [40001-40200] [40201-40400] [40401-40600] [40601-40800] [40801-41000] [41001-41200] [41201-41400] [41401-41600] [41601-41800] [41801-42000] [42001-42200] [42201-42400] [42401-42600] [42601-42800] [42801-43000] [43001-43200] [43201-43400] [43401-43600] [43601-43800] [43801-44000] [44001-44200] [44201-44400] [44401-44600] [44601-44800] [44801-45000] [45001-45200] [45201-45400] [45401-45600] [45601-45800] [45801-46000] [46001-46200] [46201-46400] [46401-46600] [46601-46800] [46801-47000] [47001-47200] [47201-47400] [47401-47600] [47601-47800] [47801-48000] [48001-48200] [48201-48400] [48401-48600] [48601-48800] [48801-49000] [49001-49200] [49201-49400] [49401-49600] [49601-49800] [49801-50000] [50001-50200] [50201-50388]

Designation T Tech N Date Right Ascension Declination Apparent Magnitude Star Catalog Site code χ Used A Used M
yr-mo-day precision hr:min:sec precision rms F bias residual deg min sec precision rms F bias residual mag/col rms residual
2005GE59 O C 2011-04-29.18827 1.000E-05 12:41:51.470 1.500E-01 0.500 F 0.174 -1.143 +00° 07' 56.60" 1.000E-01 0.500 F 0.267 0.202 20.8 V 0.70 0.12 o 691 2.33 Yes Yes
2011HF O C 2011-04-29.19350 1.000E-05 12:45:49.010 1.500E-01 0.500 F 0.091 -0.273 -02° 31' 17.90" 1.000E-01 0.500 F 0.125 0.375 20.9 V 0.70 0.00 o 691 0.93 Yes Yes
2005CA O C H 2011-04-29.21503 1.000E-05 14:57:13.110 1.500E-01 0.500 F 0.175 -1.646 -08° 33' 03.10" 1.000E-01 0.500 F 0.157 -0.503 o 691 3.42 No No
2005CA O C H 2011-04-29.23277 1.000E-05 14:57:12.380 1.500E-01 0.500 F 0.175 -0.348 -08° 32' 57.80" 1.000E-01 0.500 F 0.157 -0.687 o 691 1.54 Yes No
2005CA O C H 2011-04-29.25051 1.000E-05 14:57:11.470 1.500E-01 0.500 F 0.175 -1.703 -08° 32' 52.50" 1.000E-01 0.500 F 0.157 -0.875 o 691 3.81 No No
1999WK13 O C H 2011-04-29.38804 1.000E-05 16:24:27.110 1.500E-01 0.559 F 0.088 -1.149 +05° 05' 34.40" 1.000E-01 0.559 F 0.182 -0.606 21.2 V 0.70 0.16 o 691 2.33 Yes Yes
1999WK13 O C H 2011-04-29.42348 1.000E-05 16:24:24.580 1.500E-01 0.559 F 0.088 -0.320 +05° 05' 34.30" 1.000E-01 0.559 F 0.182 -0.252 21.2 V 0.70 0.16 o 691 0.73 Yes Yes
1999WK13 O C 2011-04-29.43574 1.000E-05 16:24:23.680 1.500E-01 0.559 F 0.088 -0.403 +05° 05' 34.40" 1.000E-01 0.559 F 0.182 0.013 21.0 V 0.70 -0.04 o 691 0.72 Yes Yes
1999WK13 O C 2011-04-29.45345 1.000E-05 16:24:22.400 1.500E-01 0.559 F 0.088 -0.231 +05° 05' 33.90" 1.000E-01 0.559 F 0.182 -0.240 20.9 V 0.70 -0.14 o 691 0.60 Yes Yes
1999WK13 O C 2011-04-29.47120 1.000E-05 16:24:21.110 1.500E-01 0.559 F 0.088 -0.179 +05° 05' 33.60" 1.000E-01 0.559 F 0.182 -0.285 20.8 V 0.70 -0.24 o 691 0.60 Yes Yes
1999HD1 O C 2011-04-30.15237 1.000E-05 12:55:19.650 1.500E-01 0.500 F 0.191 -0.271 -03° 59' 39.80" 1.000E-01 0.500 F 0.154 0.001 20.0 V 0.70 -0.37 o 691 0.55 Yes Yes
1999HD1 O C 2011-04-30.17086 1.000E-05 12:55:17.060 1.500E-01 0.500 F 0.191 -0.155 -03° 58' 51.10" 1.000E-01 0.500 F 0.154 0.302 20.2 V 0.70 -0.17 o 691 0.68 Yes Yes
1999HD1 O C 2011-04-30.18939 1.000E-05 12:55:14.450 1.500E-01 0.500 F 0.191 -0.166 -03° 58' 02.70" 1.000E-01 0.500 F 0.154 0.189 20.0 V 0.70 -0.37 o 691 0.51 Yes Yes
2018JC3 O C 2011-04-30.22149 1.000E-05 15:01:41.000 1.500E-01 0.500 F 0.247 -0.625 -05° 09' 42.50" 1.000E-01 0.500 F 0.050 0.333 20.4 V 0.70 -0.35 o 691 1.44 Yes Yes
2018JC3 O C 2011-04-30.23922 1.000E-05 15:01:40.150 1.500E-01 0.500 F 0.247 -0.253 -05° 09' 30.20" 1.000E-01 0.500 F 0.050 0.212 20.3 V 0.70 -0.45 o 691 0.67 Yes Yes
2018JC3 O C 2011-04-30.25695 1.000E-05 15:01:39.260 1.500E-01 0.500 F 0.247 -0.394 -05° 09' 17.80" 1.000E-01 0.500 F 0.050 0.179 20.6 V 0.70 -0.15 o 691 0.88 Yes Yes
2011HN24 O C 2011-04-30.32448 1.000E-05 15:43:43.420 1.500E-01 0.500 F 0.138 0.182 -10° 34' 12.50" 1.000E-01 0.500 F 0.159 0.351 20.7 V 0.70 -0.42 o 691 0.81 Yes Yes
2011HH O C t 2011-04-30.32697 1.000E-05 15:56:32.860 1.500E-01 0.500 F 0.195 0.478 -10° 24' 16.00" 1.000E-01 0.500 F 0.160 -0.140 19.3 V 0.70 0.02 o 691 1.10 Yes Yes
2011HN24 O C 2011-04-30.34226 1.000E-05 15:43:44.330 1.500E-01 0.500 F 0.138 -0.351 -10° 34' 47.60" 1.000E-01 0.500 F 0.159 -0.423 20.9 V 0.70 -0.23 o 691 1.13 Yes Yes
2011HH O C t 2011-04-30.34474 1.000E-05 15:56:35.910 1.500E-01 0.500 F 0.195 -0.034 -10° 26' 43.10" 1.000E-01 0.500 F 0.160 -0.533 20.4 V 0.70 1.12 o 691 1.15 Yes Yes
2011HN24 O C 2011-04-30.36002 1.000E-05 15:43:45.240 1.500E-01 0.500 F 0.138 -0.460 -10° 35' 21.50" 1.000E-01 0.500 F 0.159 -0.709 21.3 V 0.70 0.17 o 691 1.72 Yes Yes
2011HH O C t 2011-04-30.36251 1.000E-05 15:56:38.980 1.500E-01 0.500 F 0.195 0.191 -10° 29' 09.20" 1.000E-01 0.500 F 0.160 -0.517 20.7 V 0.70 1.42 o 691 1.21 Yes Yes
1998HK49 O C H 2011-05-01.29579 1.000E-05 15:55:05.380 1.500E-01 0.500 F 0.200 0.106 -08° 37' 16.20" 1.000E-01 0.500 F 0.122 0.901 20.7 V 0.70 0.67 o 691 1.83 Yes Yes
1998HK49 O C H 2011-05-01.31352 1.000E-05 15:55:01.660 1.500E-01 0.500 F 0.200 -0.732 -08° 37' 56.10" 1.000E-01 0.500 F 0.122 -0.076 20.6 V 0.70 0.57 o 691 1.49 Yes Yes
1998HK49 O C H 2011-05-01.33124 1.000E-05 15:54:57.920 1.500E-01 0.500 F 0.200 -1.756 -08° 38' 34.90" 1.000E-01 0.500 F 0.122 -0.063 20.7 V 0.70 0.67 o 691 3.48 No Yes
2000PM8 O C 2011-05-03.14646 1.000E-05 12:48:44.710 1.500E-01 0.500 F 0.151 0.315 -05° 05' 58.00" 1.000E-01 0.500 F 0.150 -0.087 20.1 V 0.70 1.32 o 691 0.65 Yes Yes
2004FU4 O C 2011-05-03.14908 1.000E-05 12:48:46.120 1.500E-01 0.500 F 0.202 0.458 -07° 40' 34.70" 1.000E-01 0.500 F 0.078 -0.580 18.5 V 0.70 0.10 o 691 1.48 Yes Yes
2011HO24 O C H 2011-05-03.16506 1.000E-05 12:56:13.350 1.500E-01 0.500 F 0.204 0.647 -06° 55' 16.10" 1.000E-01 0.500 F 0.145 -0.149 o 691 1.36 Yes No
2000PM8 O C 2011-05-03.17039 1.000E-05 12:48:43.650 1.500E-01 0.500 F 0.151 -0.322 -05° 05' 42.20" 1.000E-01 0.500 F 0.150 0.029 19.2 V 0.70 0.42 o 691 0.65 Yes Yes
2004FU4 O C 2011-05-03.17301 1.000E-05 12:48:42.650 1.500E-01 0.500 F 0.202 -0.116 -07° 41' 08.70" 1.000E-01 0.500 F 0.078 -0.304 19.7 V 0.70 1.30 o 691 0.65 Yes Yes
2011HO24 O C H 2011-05-03.18898 1.000E-05 12:56:14.980 1.500E-01 0.500 F 0.204 0.122 -06° 54' 34.50" 1.000E-01 0.500 F 0.145 -0.844 o 691 1.77 Yes No
2000PM8 O C 2011-05-03.19431 1.000E-05 12:48:42.640 1.500E-01 0.500 F 0.151 -0.195 -05° 05' 26.70" 1.000E-01 0.500 F 0.150 -0.149 19.2 V 0.70 0.42 o 691 0.49 Yes Yes
2004FU4 O C 2011-05-03.19692 1.000E-05 12:48:39.210 1.500E-01 0.500 F 0.202 -0.213 -07° 41' 42.60" 1.000E-01 0.500 F 0.078 -0.020 18.9 V 0.70 0.50 o 691 0.43 Yes Yes
2011HO24 O C H 2011-05-03.21290 1.000E-05 12:56:16.630 1.500E-01 0.500 F 0.204 0.350 -06° 53' 51.50" 1.000E-01 0.500 F 0.145 -0.292 o 691 0.94 Yes No
2011HF O C H 2011-05-04.14745 1.000E-05 12:40:01.710 1.500E-01 0.500 F 0.135 -0.433 -00° 39' 37.80" 1.000E-01 0.500 F 0.194 -0.053 21.0 V 0.70 -0.07 o 691 0.88 Yes Yes
1999HD1 O C H 2011-05-04.16343 1.000E-05 12:46:41.040 1.500E-01 0.500 F 0.128 -0.265 -01° 06' 58.60" 1.000E-01 0.500 F 0.129 -1.000 21.0 V 0.70 0.49 o 691 2.08 Yes Yes
2011HF O C H 2011-05-04.16866 1.000E-05 12:40:00.130 1.500E-01 0.500 F 0.135 -2.508 -00° 39' 09.20" 1.000E-01 0.500 F 0.194 1.477 20.6 V 0.70 -0.47 o 691 5.79 No Yes
1999HD1 O C H 2011-05-04.18464 1.000E-05 12:46:38.290 1.500E-01 0.500 F 0.128 -0.154 -01° 06' 03.20" 1.000E-01 0.500 F 0.129 0.668 21.1 V 0.70 0.59 o 691 1.38 Yes Yes
2011HF O C H 2011-05-04.18988 1.000E-05 12:39:58.820 1.500E-01 0.500 F 0.135 -0.464 -00° 38' 43.50" 1.000E-01 0.500 F 0.194 0.106 o 691 0.96 Yes No
2007PP6 O C 2011-05-05.34527 1.000E-05 16:01:16.580 1.500E-01 0.500 F 0.155 -0.329 -01° 23' 18.40" 1.000E-01 0.500 F 0.159 0.036 o 691 0.67 Yes No
2007PP6 O C 2011-05-05.36299 1.000E-05 16:01:13.240 1.500E-01 0.500 F 0.155 -0.429 -01° 23' 21.90" 1.000E-01 0.500 F 0.159 0.115 o 691 0.90 Yes No
2007PP6 O C 2011-05-05.38420 1.000E-05 16:01:09.260 1.500E-01 0.500 F 0.155 -0.300 -01° 23' 26.00" 1.000E-01 0.500 F 0.159 0.299 o 691 0.86 Yes No
2011HS4 O C t 2011-05-05.39644 1.000E-05 16:09:00.630 1.500E-01 0.500 F 0.108 0.049 -01° 13' 11.90" 1.000E-01 0.500 F 0.152 -0.563 20.1 V 0.70 -0.16 o 691 1.14 Yes Yes
2011HS4 O C t 2011-05-05.43190 1.000E-05 16:08:48.440 1.500E-01 0.500 F 0.108 1.015 -01° 12' 53.50" 1.000E-01 0.500 F 0.152 -0.281 20.2 V 0.70 -0.06 o 691 2.12 Yes Yes
1998HK49 O C H 2011-05-06.26272 1.000E-05 15:39:54.000 1.500E-01 0.500 F 0.150 0.931 -11° 24' 58.50" 1.000E-01 0.500 F 0.167 -0.340 o 691 2.00 Yes No
1998HK49 O C H 2011-05-06.28048 1.000E-05 15:39:50.640 1.500E-01 0.500 F 0.150 0.642 -11° 25' 32.10" 1.000E-01 0.500 F 0.167 -0.435 o 691 1.57 Yes No
1998HK49 O C H 2011-05-06.29825 1.000E-05 15:39:47.280 1.500E-01 0.500 F 0.150 0.525 -11° 26' 05.70" 1.000E-01 0.500 F 0.167 -0.613 o 691 1.63 Yes No
2008FT6 O C 2011-05-07.14942 1.000E-05 12:50:30.060 1.500E-01 0.500 F 0.200 -0.008 +01° 21' 58.40" 1.000E-01 0.500 F 0.145 -0.313 19.9 V 0.70 -0.37 o 691 0.63 Yes Yes
2008FT6 O C 2011-05-07.17061 1.000E-05 12:50:29.130 1.500E-01 0.500 F 0.200 0.081 +01° 21' 50.50" 1.000E-01 0.500 F 0.145 -0.235 19.9 V 0.70 -0.37 o 691 0.50 Yes Yes
2008FT6 O C 2011-05-07.19179 1.000E-05 12:50:28.250 1.500E-01 0.500 F 0.200 0.932 +01° 21' 42.20" 1.000E-01 0.500 F 0.145 -0.555 19.9 V 0.70 -0.37 o 691 2.18 Yes Yes
2011JP29 O C 2011-05-07.21201 1.000E-05 15:29:21.610 1.500E-01 0.500 F 0.193 -0.400 +07° 45' 46.60" 1.000E-01 0.500 F -0.004 -0.036 19.7 V 0.70 0.31 o 691 0.82 Yes Yes
2011JP29 O C 2011-05-07.22970 1.000E-05 15:29:20.820 1.500E-01 0.500 F 0.193 -0.027 +07° 46' 07.40" 1.000E-01 0.500 F -0.004 0.023 19.6 V 0.70 0.21 o 691 0.07 Yes Yes
2011JP29 O C 2011-05-07.24741 1.000E-05 15:29:20.000 1.500E-01 0.500 F 0.193 0.029 +07° 46' 28.00" 1.000E-01 0.500 F -0.004 -0.121 19.6 V 0.70 0.21 o 691 0.25 Yes Yes
2007HA59 O C 2011-05-07.28416 1.000E-05 15:45:57.650 1.500E-01 0.500 F 0.016 -0.527 -14° 14' 18.20" 1.000E-01 0.500 F 0.145 -0.001 20.0 V 0.70 -0.65 o 691 1.06 Yes Yes
2007HA59 O C 2011-05-07.30192 1.000E-05 15:45:56.250 1.500E-01 0.500 F 0.016 -0.343 -14° 14' 19.60" 1.000E-01 0.500 F 0.145 -0.196 20.0 V 0.70 -0.64 o 691 0.79 Yes Yes
2007HA59 O C 2011-05-07.31967 1.000E-05 15:45:54.840 1.500E-01 0.500 F 0.016 -0.306 -14° 14' 20.80" 1.000E-01 0.500 F 0.145 -0.200 20.8 V 0.70 0.16 o 691 0.73 Yes Yes
2000PM8 O C 2011-05-08.15912 1.000E-05 12:45:38.510 1.500E-01 0.500 F 0.114 -0.115 -04° 14' 09.60" 1.000E-01 0.500 F 0.136 0.245 19.4 V 0.70 0.46 o 691 0.54 Yes Yes
2000PM8 O C 2011-05-08.18033 1.000E-05 12:45:37.760 1.500E-01 0.500 F 0.114 -0.267 -04° 13' 57.50" 1.000E-01 0.500 F 0.136 -0.003 19.4 V 0.70 0.46 o 691 0.54 Yes Yes
2000PM8 O C 2011-05-08.20153 1.000E-05 12:45:37.090 1.500E-01 0.500 F 0.114 0.777 -04° 13' 44.70" 1.000E-01 0.500 F 0.136 0.457 19.1 V 0.70 0.16 o 691 1.80 Yes Yes
2011JZ10 O C 2011-05-08.32533 1.000E-05 15:59:06.980 1.500E-01 0.500 F 0.130 -0.457 +03° 14' 42.00" 1.000E-01 0.500 F 0.124 0.351 21.6 V 0.70 -0.15 o 691 1.19 Yes Yes
2011JZ10 O C 2011-05-08.34307 1.000E-05 15:59:07.290 1.500E-01 0.500 F 0.130 -0.357 +03° 14' 25.80" 1.000E-01 0.500 F 0.124 -0.573 21.5 V 0.70 -0.25 o 691 1.37 Yes Yes
2011JZ10 O C 2011-05-08.36082 1.000E-05 15:59:07.640 1.500E-01 0.500 F 0.130 0.358 +03° 14' 10.90" 1.000E-01 0.500 F 0.124 -0.152 21.7 V 0.70 -0.05 o 691 0.80 Yes Yes
2000YH4 O C 2011-05-08.38555 1.000E-05 16:37:18.400 1.500E-01 0.500 F 0.103 0.034 +03° 38' 12.20" 1.000E-01 0.500 F 0.084 -0.460 20.9 V 0.70 1.30 o 691 0.92 Yes Yes
2007RV17 O C 2011-05-08.39074 1.000E-05 16:19:25.070 1.500E-01 0.500 F 0.133 -0.583 +02° 00' 33.20" 1.000E-01 0.500 F 0.265 -0.429 21.2 V 0.70 0.17 o 691 1.46 Yes Yes
2000YH4 O C 2011-05-08.40673 1.000E-05 16:37:16.620 1.500E-01 0.500 F 0.103 -0.347 +03° 38' 17.00" 1.000E-01 0.500 F 0.084 0.137 19.8 V 0.70 0.20 o 691 0.75 Yes Yes
2007RV17 O C 2011-05-08.41193 1.000E-05 16:19:22.480 1.500E-01 0.500 F 0.133 -0.399 +02° 00' 38.40" 1.000E-01 0.500 F 0.265 -0.072 21.2 V 0.70 0.17 o 691 0.82 Yes Yes
2000YH4 O C 2011-05-08.42449 1.000E-05 16:37:15.150 1.500E-01 0.500 F 0.103 -0.335 +03° 38' 20.40" 1.000E-01 0.500 F 0.084 0.030 19.8 V 0.70 0.20 o 691 0.68 Yes Yes
2007RV17 O C 2011-05-08.42969 1.000E-05 16:19:20.350 1.500E-01 0.500 F 0.133 0.331 +02° 00' 41.20" 1.000E-01 0.500 F 0.265 -1.320 20.6 V 0.70 -0.43 o 691 2.75 Yes Yes
2008FT6 O C 2011-05-11.14536 1.000E-05 12:48:01.420 1.500E-01 0.500 F 0.213 -0.419 +00° 56' 01.70" 1.000E-01 0.500 F 0.139 -0.415 20.8 V 0.70 0.38 o 691 1.18 Yes Yes
2008FT6 O C 2011-05-11.16742 1.000E-05 12:48:00.670 1.500E-01 0.500 F 0.213 -0.078 +00° 55' 53.40" 1.000E-01 0.500 F 0.139 0.146 20.5 V 0.70 0.08 o 691 0.33 Yes Yes
2008FT6 O C 2011-05-11.18602 1.000E-05 12:48:00.030 1.500E-01 0.500 F 0.213 0.107 +00° 55' 45.40" 1.000E-01 0.500 F 0.139 -0.380 20.3 V 0.70 -0.12 o 691 0.79 Yes Yes
2007HA59 O C 2011-05-11.27833 1.000E-05 15:40:43.030 1.500E-01 0.500 F -0.004 -0.093 -14° 18' 40.10" 1.000E-01 0.500 F 0.148 -0.017 20.4 V 0.70 -0.18 o 691 0.19 Yes Yes
2007HA59 O C 2011-05-11.29610 1.000E-05 15:40:41.590 1.500E-01 0.500 F -0.004 -0.301 -14° 18' 41.00" 1.000E-01 0.500 F 0.148 0.253 21.2 V 0.70 0.62 o 691 0.79 Yes Yes
2007HA59 O C 2011-05-11.31390 1.000E-05 15:40:40.140 1.500E-01 0.500 F -0.004 -0.611 -14° 18' 42.60" 1.000E-01 0.500 F 0.148 -0.183 20.3 V 0.70 -0.28 o 691 1.28 Yes Yes
Sisyphus O C 2011-05-13.29558 1.000E-05 15:38:24.620 1.500E-01 0.500 F 0.024 -0.342 +00° 39' 10.20" 1.000E-01 0.500 F 0.247 -0.013 14.6 V 0.70 -0.07 o 691 0.69 Yes Yes
Sisyphus O C 2011-05-13.31331 1.000E-05 15:38:22.120 1.500E-01 0.500 F 0.024 -0.158 +00° 39' 00.60" 1.000E-01 0.500 F 0.247 -0.079 14.6 V 0.70 -0.07 o 691 0.36 Yes Yes
Sisyphus O C 2011-05-13.33102 1.000E-05 15:38:19.610 1.500E-01 0.500 F 0.024 -0.151 +00° 38' 51.20" 1.000E-01 0.500 F 0.247 0.053 14.6 V 0.70 -0.07 o 691 0.32 Yes Yes
2002JB9 O C 2011-05-23.27812 1.000E-05 16:45:48.540 1.500E-01 0.500 F 0.144 -0.404 +03° 38' 12.80" 1.000E-01 0.500 F 0.176 -0.059 16.0 V 0.70 0.37 o 691 0.82 Yes Yes
2002JB9 O C 2011-05-23.29585 1.000E-05 16:45:43.760 1.500E-01 0.500 F 0.144 -0.336 +03° 37' 43.70" 1.000E-01 0.500 F 0.176 -0.094 15.8 V 0.70 0.17 o 691 0.70 Yes Yes
2002JB9 O C 2011-05-23.31360 1.000E-05 16:45:38.960 1.500E-01 0.500 F 0.144 -0.309 +03° 37' 14.50" 1.000E-01 0.500 F 0.176 -0.124 16.0 V 0.70 0.38 o 691 0.67 Yes Yes
2010TV149 O C 2011-05-26.23789 1.000E-05 15:45:10.860 1.500E-01 0.500 F 0.126 -0.030 -12° 16' 52.50" 1.000E-01 0.500 F 0.136 0.112 19.6 V 0.70 0.25 o 691 0.23 Yes Yes
2010TV149 O C 2011-05-26.25567 1.000E-05 15:45:08.720 1.500E-01 0.500 F 0.126 -0.183 -12° 17' 00.00" 1.000E-01 0.500 F 0.136 0.148 19.7 V 0.70 0.35 o 691 0.47 Yes Yes
2010TV149 O C 2011-05-26.27344 1.000E-05 15:45:06.600 1.500E-01 0.500 F 0.126 -0.044 -12° 17' 07.70" 1.000E-01 0.500 F 0.136 -0.051 19.7 V 0.70 0.35 o 691 0.13 Yes Yes
2002JB9 O C 2011-05-26.29380 1.000E-05 16:30:42.190 1.500E-01 0.500 F 0.039 -0.184 +02° 00' 32.20" 1.000E-01 0.500 F 0.237 0.150 15.5 V 0.70 0.27 o 691 0.48 Yes Yes
2002JB9 O C 2011-05-26.31151 1.000E-05 16:30:35.940 1.500E-01 0.500 F 0.039 -0.263 +01° 59' 51.70" 1.000E-01 0.500 F 0.237 0.079 15.4 V 0.70 0.18 o 691 0.55 Yes Yes
2002JB9 O C 2011-05-26.32922 1.000E-05 16:30:29.680 1.500E-01 0.500 F 0.039 -0.322 +01° 59' 11.20" 1.000E-01 0.500 F 0.237 0.095 15.4 V 0.70 0.18 o 691 0.68 Yes Yes
2001RM O C 2011-05-26.35205 1.000E-05 17:00:10.110 1.500E-01 0.500 F 0.049 -0.061 +15° 08' 33.90" 1.000E-01 0.500 F 0.149 0.054 17.8 V 0.70 0.38 o 691 0.16 Yes Yes
2001RM O C 2011-05-26.36989 1.000E-05 17:00:08.790 1.500E-01 0.500 F 0.049 -0.200 +15° 09' 21.80" 1.000E-01 0.500 F 0.149 -0.041 17.8 V 0.70 0.38 o 691 0.41 Yes Yes
2001RM O C 2011-05-26.38772 1.000E-05 17:00:07.480 1.500E-01 0.500 F 0.049 -0.214 +15° 10' 09.60" 1.000E-01 0.500 F 0.149 -0.177 17.8 V 0.70 0.38 o 691 0.56 Yes Yes
2020JW3 O C 2011-05-27.30692 1.000E-05 16:35:03.360 1.500E-01 0.500 F 0.105 -0.293 +04° 55' 37.60" 1.000E-01 0.500 F 0.165 0.119 21.2 V 0.70 -0.16 o 691 0.64 Yes Yes
2011KJ15 O C 2011-05-27.30940 1.000E-05 16:42:09.220 1.500E-01 0.500 F 0.216 -0.304 +05° 13' 49.60" 1.000E-01 0.500 F 0.160 0.265 20.8 V 0.70 -0.09 o 691 0.84 Yes Yes
2020JW3 O C 2011-05-27.32466 1.000E-05 16:35:02.380 1.500E-01 0.500 F 0.105 -0.206 +04° 55' 55.00" 1.000E-01 0.500 F 0.165 -0.249 21.2 V 0.70 -0.16 o 691 0.65 Yes Yes
2011KJ15 O C 2011-05-27.32714 1.000E-05 16:42:05.450 1.500E-01 0.500 F 0.216 -1.280 +05° 14' 53.60" 1.000E-01 0.500 F 0.160 0.173 20.4 V 0.70 -0.49 o 691 2.68 Yes Yes
2020JW3 O C 2011-05-27.34239 1.000E-05 16:35:01.370 1.500E-01 0.500 F 0.105 -0.573 +04° 56' 13.20" 1.000E-01 0.500 F 0.165 0.207 20.7 V 0.70 -0.66 o 691 1.24 Yes Yes
2011KJ15 O C 2011-05-27.34486 1.000E-05 16:42:01.800 1.500E-01 0.500 F 0.216 -0.380 +05° 15' 57.70" 1.000E-01 0.500 F 0.160 0.158 20.7 V 0.70 -0.19 o 691 0.85 Yes Yes
2003WM25 O C H 2011-05-28.24339 1.000E-05 15:38:00.740 1.500E-01 0.500 F -0.088 1.915 -16° 38' 47.30" 1.000E-01 0.500 F 0.189 -3.258 20.8 V 0.70 -0.21 o 691 7.31 No Yes
2003WM25 O C H 2011-05-28.26114 1.000E-05 15:37:59.110 1.500E-01 0.500 F -0.088 -0.700 -16° 38' 43.70" 1.000E-01 0.500 F 0.189 0.034 20.9 V 0.70 -0.11 o 691 1.45 Yes Yes
2003WM25 O C H 2011-05-28.27888 1.000E-05 15:37:57.700 1.500E-01 0.500 F -0.075 -0.171 -16° 38' 44.10" 1.000E-01 0.500 F 0.100 -0.601 21.0 V 0.70 -0.01 o 691 1.27 Yes Yes
2000YL29 O C 2011-05-28.40548 1.000E-05 23:10:45.330 1.500E-01 0.500 F -0.022 -0.385 +28° 13' 28.30" 1.000E-01 0.500 F 0.157 0.302 18.8 V 0.70 0.39 o 691 0.98 Yes Yes
2000YL29 O C 2011-05-28.41846 1.000E-05 23:10:48.740 1.500E-01 0.500 F -0.022 -0.636 +28° 13' 37.40" 1.000E-01 0.500 F 0.157 -0.194 18.8 V 0.70 0.39 o 691 1.33 Yes Yes
2000YL29 O C 2011-05-28.43144 1.000E-05 23:10:52.200 1.500E-01 0.500 F -0.022 -0.165 +28° 13' 46.90" 1.000E-01 0.500 F 0.157 -0.270 19.1 V 0.70 0.69 o 691 0.63 Yes Yes
2008HE O C 2011-05-29.22014 1.000E-05 16:25:54.390 1.500E-01 0.500 F 0.067 -0.369 -05° 04' 50.70" 1.000E-01 0.500 F 0.226 -0.091 18.1 V 0.70 0.13 o 691 0.77 Yes Yes
2008HE O C 2011-05-29.23785 1.000E-05 16:25:48.480 1.500E-01 0.500 F 0.067 -0.281 -05° 04' 06.50" 1.000E-01 0.500 F 0.226 -0.060 18.1 V 0.70 0.13 o 691 0.58 Yes Yes
2008HE O C 2011-05-29.25557 1.000E-05 16:25:42.550 1.500E-01 0.500 F 0.067 -0.257 -05° 03' 22.40" 1.000E-01 0.500 F 0.226 -0.217 18.2 V 0.70 0.23 o 691 0.68 Yes Yes
2011KE3 O C H 2011-05-29.27237 1.000E-05 16:17:57.770 1.500E-01 0.500 F 0.171 -0.162 -00° 40' 02.90" 1.000E-01 0.500 F 0.245 0.417 21.2 V 0.70 0.43 o 691 0.92 Yes Yes
2011KE3 O C H 2011-05-29.30780 1.000E-05 16:18:02.460 1.500E-01 0.500 F 0.171 -1.084 -00° 37' 37.60" 1.000E-01 0.500 F 0.245 -0.925 21.1 V 0.70 0.32 o 691 2.92 Yes Yes
2006RG7 O C H 2011-05-31.34552 1.000E-05 17:13:12.090 1.500E-01 0.500 F 0.031 0.080 +17° 00' 01.90" 1.000E-01 0.500 F 0.229 -0.337 21.5 V 0.70 -0.05 o 691 0.70 Yes Yes
2006RG7 O C H 2011-05-31.38111 1.000E-05 17:13:09.520 1.500E-01 0.500 F 0.031 -0.622 +17° 00' 29.00" 1.000E-01 0.500 F 0.229 0.534 21.8 V 0.70 0.25 o 691 1.63 Yes Yes
2003WM25 O C H 2011-06-03.25578 1.000E-05 15:30:05.500 1.500E-01 0.500 F -0.033 0.162 -16° 37' 17.60" 1.000E-01 0.500 F 0.099 -0.583 21.2 V 0.70 0.10 o 691 1.25 Yes Yes
2003WM25 O C H 2011-06-03.27356 1.000E-05 15:30:04.130 1.500E-01 0.500 F -0.033 0.943 -16° 37' 17.20" 1.000E-01 0.500 F 0.099 -0.351 21.2 V 0.70 0.10 o 691 2.10 Yes Yes
2000LB16 O C 2011-06-04.16452 1.000E-05 16:48:14.870 1.500E-01 0.500 F 0.090 1.601 +20° 03' 04.60" 1.000E-01 0.500 F 0.146 0.841 18.5 V 0.70 0.30 o 691 3.55 No Yes
2000LB16 O C 2011-06-04.18230 1.000E-05 16:48:08.060 1.500E-01 0.500 F 0.090 -0.233 +20° 02' 11.20" 1.000E-01 0.500 F 0.146 0.068 18.6 V 0.70 0.40 o 691 0.49 Yes Yes
2000LB16 O C 2011-06-04.20010 1.000E-05 16:48:01.360 1.500E-01 0.500 F 0.090 -0.164 +20° 01' 18.30" 1.000E-01 0.500 F 0.146 -0.004 18.7 V 0.70 0.50 o 691 0.33 Yes Yes
2011HO53 O C 2011-06-04.22876 1.000E-05 15:59:14.370 1.500E-01 0.500 F 0.165 -0.421 -09° 41' 55.20" 1.000E-01 0.500 F 0.209 0.212 20.3 V 0.70 -0.31 o 691 1.00 Yes Yes
2011HO53 O C 2011-06-04.24652 1.000E-05 15:59:16.600 1.500E-01 0.500 F 0.165 -0.392 -09° 42' 21.80" 1.000E-01 0.500 F 0.209 0.187 20.3 V 0.70 -0.31 o 691 0.92 Yes Yes
2011HO53 O C 2011-06-04.26426 1.000E-05 15:59:18.840 1.500E-01 0.500 F 0.165 -0.093 -09° 42' 48.50" 1.000E-01 0.500 F 0.209 -0.046 20.4 V 0.70 -0.21 o 691 0.22 Yes Yes
2011KE3 O C H 2011-06-04.27594 1.000E-05 16:33:50.960 1.500E-01 0.500 F 0.126 0.446 +05° 57' 27.30" 1.000E-01 0.500 F 0.184 -0.265 21.1 V 0.70 0.11 o 691 1.06 Yes Yes
2011KE3 O C H 2011-06-04.29371 1.000E-05 16:33:53.270 1.500E-01 0.500 F 0.126 -0.972 +05° 58' 32.80" 1.000E-01 0.500 F 0.184 -1.429 21.4 V 0.70 0.41 o 691 3.40 No Yes
2011LJ1 O C 2011-06-05.28133 1.000E-05 16:24:17.530 1.500E-01 0.500 F 0.106 0.003 -01° 28' 42.20" 1.000E-01 0.500 F 0.273 0.425 20.3 V 0.70 0.57 o 691 0.86 Yes Yes
2011LJ1 O C 2011-06-05.29908 1.000E-05 16:24:15.100 1.500E-01 0.500 F 0.106 -0.280 -01° 28' 28.30" 1.000E-01 0.500 F 0.273 -0.319 19.7 V 0.70 -0.03 o 691 0.86 Yes Yes
2011LJ1 O C 2011-06-05.31682 1.000E-05 16:24:12.710 1.500E-01 0.500 F 0.106 0.024 -01° 28' 13.40" 1.000E-01 0.500 F 0.273 -0.058 19.7 V 0.70 -0.03 o 691 0.13 Yes Yes
2001RM O C 2011-06-06.16721 1.000E-05 16:45:54.130 1.500E-01 0.500 F 0.022 -0.231 +22° 57' 53.50" 1.000E-01 0.500 F 0.161 -0.093 17.9 V 0.70 0.51 o 691 0.50 Yes Yes
2011AO52 O C H 2011-06-06.16721 1.000E-05 16:51:32.180 1.500E-01 0.500 F -0.041 0.004 +22° 24' 40.40" 1.000E-01 0.500 F 0.153 -0.273 20.1 V 0.70 0.45 o 691 0.55 Yes Yes
2001RM O C 2011-06-06.18502 1.000E-05 16:45:52.520 1.500E-01 0.500 F 0.022 -0.283 +22° 58' 37.60" 1.000E-01 0.500 F 0.161 -0.137 17.8 V 0.70 0.41 o 691 0.63 Yes Yes
2011AO52 O C H 2011-06-06.18502 1.000E-05 16:51:31.190 1.500E-01 0.500 F -0.041 -0.399 +22° 24' 22.60" 1.000E-01 0.500 F 0.153 0.241 20.0 V 0.70 0.35 o 691 0.94 Yes Yes
2001RM O C 2011-06-06.20284 1.000E-05 16:45:50.920 1.500E-01 0.500 F 0.022 -0.097 +22° 59' 21.80" 1.000E-01 0.500 F 0.161 -0.059 17.8 V 0.70 0.41 o 691 0.23 Yes Yes
2011AO52 O C H 2011-06-06.20284 1.000E-05 16:51:30.260 1.500E-01 0.500 F -0.041 0.125 +22° 24' 04.00" 1.000E-01 0.500 F 0.153 0.010 20.0 V 0.70 0.35 o 691 0.25 Yes Yes
2003WM25 O C H 2011-06-07.23206 1.000E-05 15:25:00.260 1.500E-01 0.500 F 0.024 0.453 -16° 37' 00.80" 1.000E-01 0.500 F -0.003 -0.399 o 691 1.26 Yes No
2003WM25 O C H 2011-06-07.24985 1.000E-05 15:24:58.860 1.500E-01 0.500 F 0.024 0.138 -16° 37' 00.40" 1.000E-01 0.500 F -0.003 0.024 o 691 0.29 Yes No
2003WM25 O C H 2011-06-07.26763 1.000E-05 15:24:57.490 1.500E-01 0.500 F 0.024 0.238 -16° 37' 00.90" 1.000E-01 0.500 F -0.003 -0.470 o 691 1.09 Yes No
2004JO2 O C 2011-06-07.28806 1.000E-05 16:15:26.850 1.500E-01 0.500 F 0.205 -0.156 +00° 47' 19.90" 1.000E-01 0.500 F 0.240 0.064 18.6 V 0.70 0.13 o 691 0.34 Yes Yes
2004JO2 O C 2011-06-07.30582 1.000E-05 16:15:25.130 1.500E-01 0.500 F 0.205 -0.310 +00° 47' 47.60" 1.000E-01 0.500 F 0.240 0.016 18.6 V 0.70 0.13 o 691 0.62 Yes Yes
2004JO2 O C 2011-06-07.32358 1.000E-05 16:15:23.420 1.500E-01 0.500 F 0.205 -0.334 +00° 48' 15.50" 1.000E-01 0.500 F 0.240 0.172 18.6 V 0.70 0.13 o 691 0.75 Yes Yes
2011KN9 O C 2011-06-07.34122 1.000E-05 17:02:13.390 1.500E-01 0.500 F 0.067 -0.097 +15° 25' 07.60" 1.000E-01 0.500 F 0.193 -0.059 19.4 V 0.70 0.56 o 691 0.23 Yes Yes
2011KN9 O C 2011-06-07.35903 1.000E-05 17:02:12.750 1.500E-01 0.500 F 0.067 -0.144 +15° 25' 57.10" 1.000E-01 0.500 F 0.193 0.110 20.2 V 0.70 1.36 o 691 0.36 Yes Yes
2011KN9 O C 2011-06-07.37684 1.000E-05 17:02:12.130 1.500E-01 0.500 F 0.067 0.041 +15° 26' 46.30" 1.000E-01 0.500 F 0.193 0.036 19.2 V 0.70 0.36 o 691 0.11 Yes Yes
2006RG7 O C H 2011-06-08.36055 1.000E-05 17:03:35.140 1.500E-01 0.500 F 0.027 -0.032 +18° 24' 32.30" 1.000E-01 0.500 F 0.234 0.061 o 691 0.13 Yes No
2006RG7 O C H 2011-06-08.37836 1.000E-05 17:03:33.780 1.500E-01 0.500 F 0.027 0.346 +18° 24' 40.50" 1.000E-01 0.500 F 0.234 -0.877 o 691 1.90 Yes No
2006RG7 O C H 2011-06-08.39617 1.000E-05 17:03:32.420 1.500E-01 0.500 F 0.027 0.690 +18° 24' 50.00" 1.000E-01 0.500 F 0.234 -0.480 o 691 1.71 Yes No
2000LB16 O C t 2011-06-09.17236 1.000E-05 16:14:32.550 1.500E-01 0.500 F 0.187 0.315 +14° 57' 11.80" 1.000E-01 0.500 F 0.120 -1.041 18.9 V 0.70 1.02 o 691 2.21 Yes Yes
2000LB16 O C t 2011-06-09.19015 1.000E-05 16:14:24.630 1.500E-01 0.500 F 0.187 0.025 +14° 55' 54.30" 1.000E-01 0.500 F 0.120 -1.146 17.8 V 0.70 -0.08 o 691 2.33 Yes Yes
2000LB16 O C t 2011-06-09.20796 1.000E-05 16:14:16.730 1.500E-01 0.500 F 0.187 0.349 +14° 54' 37.20" 1.000E-01 0.500 F 0.120 -0.609 18.2 V 0.70 0.32 o 691 1.43 Yes Yes
2011HO O C 2011-06-09.27709 1.000E-05 16:09:05.310 1.500E-01 0.500 F 0.108 -0.125 -01° 22' 09.00" 1.000E-01 0.500 F 0.153 -0.187 17.7 V 0.70 0.20 o 691 0.46 Yes Yes
2011LJ1 O C H 2011-06-09.27957 1.000E-05 16:15:09.250 1.500E-01 0.500 F 0.120 0.032 -00° 34' 00.00" 1.000E-01 0.500 F 0.154 -0.271 19.9 V 0.70 0.27 o 691 0.55 Yes Yes
2011HO O C 2011-06-09.29484 1.000E-05 16:09:07.000 1.500E-01 0.500 F 0.108 -0.174 -01° 23' 28.00" 1.000E-01 0.500 F 0.153 -0.200 17.6 V 0.70 0.10 o 691 0.54 Yes Yes
2011LJ1 O C H 2011-06-09.29732 1.000E-05 16:15:06.590 1.500E-01 0.500 F 0.120 0.070 -00° 33' 45.20" 1.000E-01 0.500 F 0.154 0.062 20.0 V 0.70 0.37 o 691 0.19 Yes Yes
2011HO O C 2011-06-09.31259 1.000E-05 16:09:08.700 1.500E-01 0.500 F 0.108 -0.170 -01° 24' 47.00" 1.000E-01 0.500 F 0.153 -0.175 17.7 V 0.70 0.20 o 691 0.50 Yes Yes
2011LJ1 O C H 2011-06-09.31506 1.000E-05 16:15:03.900 1.500E-01 0.500 F 0.120 -0.375 -00° 33' 30.90" 1.000E-01 0.500 F 0.154 -0.098 19.9 V 0.70 0.27 o 691 0.79 Yes Yes
2011KE3 O C t 2011-06-09.34558 1.000E-05 16:47:13.800 1.500E-01 0.500 F 0.102 0.217 +10° 52' 14.50" 1.000E-01 0.500 F 0.144 -0.666 21.1 V 0.70 -0.09 o 691 1.42 Yes Yes
2011KE3 O C t 2011-06-09.36336 1.000E-05 16:47:16.180 1.500E-01 0.500 F 0.102 -0.331 +10° 53' 11.20" 1.000E-01 0.500 F 0.144 -0.556 21.8 V 0.70 0.61 o 691 1.32 Yes Yes
2011KE3 O C t 2011-06-09.38115 1.000E-05 16:47:18.670 1.500E-01 0.500 F 0.083 0.454 +10° 54' 07.50" 1.000E-01 0.500 F 0.136 -0.712 22.2 V 0.70 1.01 o 691 1.71 Yes Yes
2011AO52 O C 2011-06-10.18546 1.000E-05 16:48:20.210 1.500E-01 0.500 F 0.121 -0.084 +21° 11' 34.50" 1.000E-01 0.500 F 0.154 0.075 19.7 V 0.70 -0.06 o 691 0.23 Yes Yes
2011AO52 O C 2011-06-10.20328 1.000E-05 16:48:19.390 1.500E-01 0.500 F 0.121 0.524 +21° 11' 14.10" 1.000E-01 0.500 F 0.154 -0.371 21.0 V 0.70 1.24 o 691 1.29 Yes Yes
2011AO52 O C 2011-06-10.22109 1.000E-05 16:48:18.470 1.500E-01 0.500 F 0.121 -0.212 +21° 10' 54.40" 1.000E-01 0.500 F 0.154 -0.084 19.7 V 0.70 -0.06 o 691 0.46 Yes Yes
2010LG14 O C 2011-06-10.42163 1.000E-05 23:15:00.070 1.500E-01 0.500 F -0.042 -0.271 +24° 14' 09.90" 1.000E-01 0.500 F 0.239 -0.239 20.2 V 0.70 0.04 o 691 0.73 Yes Yes
2010LG14 O C 2011-06-10.43438 1.000E-05 23:15:02.540 1.500E-01 0.500 F -0.042 -0.590 +24° 14' 51.80" 1.000E-01 0.500 F 0.239 -0.266 20.4 V 0.70 0.24 o 691 1.30 Yes Yes
2010LG14 O C 2011-06-10.44712 1.000E-05 23:15:05.080 1.500E-01 0.500 F -0.042 0.099 +24° 15' 33.80" 1.000E-01 0.500 F 0.239 -0.157 20.1 V 0.70 -0.06 o 691 0.37 Yes Yes
2010TV149 O C H 2011-06-11.22381 1.000E-05 15:21:38.550 1.500E-01 0.500 F 0.167 0.251 -14° 04' 43.90" 1.000E-01 0.500 F -0.001 -0.667 o 691 1.44 Yes No
2002LJ O C t 2011-06-11.22878 1.000E-05 15:34:06.770 1.500E-01 0.500 F 0.079 0.573 -14° 40' 00.90" 1.000E-01 0.500 F 0.067 -0.703 18.5 V 0.70 -0.26 o 691 1.82 Yes Yes
2010TV149 O C H 2011-06-11.24159 1.000E-05 15:21:37.390 1.500E-01 0.500 F 0.167 0.090 -14° 04' 50.30" 1.000E-01 0.500 F -0.001 -0.073 20.6 V 0.70 0.29 o 691 0.23 Yes Yes
2002LJ O C t 2011-06-11.24657 1.000E-05 15:34:03.540 1.500E-01 0.500 F 0.079 0.433 -14° 39' 20.60" 1.000E-01 0.500 F 0.067 -0.518 18.7 V 0.70 -0.06 o 691 1.35 Yes Yes
2010TV149 O C H 2011-06-11.25938 1.000E-05 15:21:36.240 1.500E-01 0.500 F 0.167 0.059 -14° 04' 57.80" 1.000E-01 0.500 F -0.001 -0.602 20.3 V 0.70 -0.01 o 691 1.22 Yes Yes
2002LJ O C t 2011-06-11.26434 1.000E-05 15:34:00.320 1.500E-01 0.500 F 0.079 0.367 -14° 38' 40.70" 1.000E-01 0.500 F 0.067 -0.714 18.7 V 0.70 -0.06 o 691 1.61 Yes Yes
2011KP17 O C 2011-06-11.28863 1.000E-05 16:36:49.820 1.500E-01 0.500 F 0.061 -0.142 +01° 27' 41.40" 1.000E-01 0.500 F 0.121 -0.157 19.2 V 0.70 0.37 o 691 0.43 Yes Yes
2011KP17 O C 2011-06-11.30636 1.000E-05 16:36:47.690 1.500E-01 0.500 F 0.061 -0.314 +01° 28' 03.10" 1.000E-01 0.500 F 0.121 -0.231 19.2 V 0.70 0.37 o 691 0.79 Yes Yes
2011KP17 O C 2011-06-11.32410 1.000E-05 16:36:45.580 1.500E-01 0.500 F 0.061 -0.189 +01° 28' 25.00" 1.000E-01 0.500 F 0.121 -0.112 19.2 V 0.70 0.38 o 691 0.45 Yes Yes
2010OF101 O C H 2011-06-12.37828 1.000E-05 20:58:02.310 1.500E-01 0.500 F -0.058 -1.651 +49° 35' 29.50" 1.000E-01 0.500 F 0.303 -0.860 o 691 3.67 No No
2010OF101 O C H 2011-06-12.38676 1.000E-05 20:58:01.200 1.500E-01 0.500 F -0.058 -0.987 +49° 35' 44.00" 1.000E-01 0.500 F 0.303 -0.352 o 691 2.14 Yes No
2009AV O C H 2011-06-12.41450 1.000E-05 22:54:25.360 1.500E-01 0.500 F -0.030 -1.219 +56° 05' 25.90" 1.000E-01 0.500 F 0.221 -0.839 o 691 2.96 Yes No
2009AV O C H 2011-06-12.42073 1.000E-05 22:54:25.940 1.500E-01 0.500 F -0.030 -1.719 +56° 05' 25.90" 1.000E-01 0.500 F 0.221 -0.968 o 691 3.94 No No
2011KP17 O C 2011-06-20.33983 1.000E-05 16:18:17.860 1.500E-01 0.500 F 0.170 -0.283 +04° 32' 36.20" 1.000E-01 0.500 F 0.121 0.723 19.1 V 0.70 0.44 o 691 1.57 Yes Yes
2011KP17 O C 2011-06-20.36074 1.000E-05 16:18:14.940 1.500E-01 0.500 F 0.170 -0.207 +04° 33' 00.80" 1.000E-01 0.500 F 0.121 0.185 19.2 V 0.70 0.54 o 691 0.56 Yes Yes
2011KP17 O C 2011-06-20.39036 1.000E-05 16:18:10.830 1.500E-01 0.500 F 0.170 -0.116 +04° 33' 36.10" 1.000E-01 0.500 F 0.121 -0.081 19.1 V 0.70 0.44 o 691 0.29 Yes Yes
2011MF O C 2011-06-21.30732 1.000E-05 20:33:35.430 1.500E-01 0.500 F -0.119 -0.159 -11° 27' 51.00" 1.000E-01 0.500 F 0.215 0.187 19.8 V 0.70 0.01 o 691 0.50 Yes Yes
1994LX O C 2011-06-21.31229 1.000E-05 20:46:41.500 1.500E-01 0.500 F -0.045 -0.049 -11° 35' 58.80" 1.000E-01 0.500 F 0.264 0.040 17.1 V 0.70 0.19 o 691 0.12 Yes Yes
2011MF O C 2011-06-21.32509 1.000E-05 20:33:42.190 1.500E-01 0.500 F -0.119 -0.786 -11° 28' 35.00" 1.000E-01 0.500 F 0.215 0.198 20.2 V 0.70 0.41 o 691 1.66 Yes Yes
1994LX O C 2011-06-21.33007 1.000E-05 20:46:40.490 1.500E-01 0.500 F -0.045 -0.132 -11° 36' 29.40" 1.000E-01 0.500 F 0.264 -0.080 17.0 V 0.70 0.09 o 691 0.31 Yes Yes
2011MF O C 2011-06-21.34289 1.000E-05 20:33:49.060 1.500E-01 0.500 F -0.119 0.362 -11° 29' 19.50" 1.000E-01 0.500 F 0.215 -0.304 20.3 V 0.70 0.51 o 691 0.96 Yes Yes
1994LX O C 2011-06-21.34787 1.000E-05 20:46:39.490 1.500E-01 0.500 F -0.045 0.035 -11° 37' 00.00" 1.000E-01 0.500 F 0.264 -0.169 17.1 V 0.70 0.19 o 691 0.35 Yes Yes
2005AB O C H 2011-06-22.40812 1.000E-05 20:56:42.950 1.500E-01 0.500 F -0.135 0.066 -14° 23' 40.20" 1.000E-01 0.500 F 0.322 0.195 20.7 V 0.70 -0.06 o 691 0.41 Yes Yes
2001LC O C H 2011-06-22.41820 1.000E-05 21:00:09.540 1.500E-01 0.500 F -0.173 0.550 -15° 27' 56.60" 1.000E-01 0.500 F 0.271 -0.479 o 691 1.47 Yes No
Zao O C 2011-06-22.42069 1.000E-05 21:06:24.390 1.500E-01 0.500 F -0.058 -0.248 -15° 41' 47.90" 1.000E-01 0.500 F 0.206 0.028 19.7 V 0.70 0.46 o 691 0.50 Yes Yes
2005AB O C H 2011-06-22.42589 1.000E-05 20:56:42.030 1.500E-01 0.500 F -0.135 -0.316 -14° 23' 48.20" 1.000E-01 0.500 F 0.322 -0.734 20.9 V 0.70 0.14 o 691 1.60 Yes Yes
2001LC O C H 2011-06-22.43599 1.000E-05 21:00:07.820 1.500E-01 0.500 F -0.173 0.541 -15° 28' 12.20" 1.000E-01 0.500 F 0.271 -0.467 o 691 1.44 Yes No
Zao O C 2011-06-22.43847 1.000E-05 21:06:23.780 1.500E-01 0.500 F -0.058 -0.356 -15° 41' 54.60" 1.000E-01 0.500 F 0.206 0.026 19.7 V 0.70 0.46 o 691 0.71 Yes Yes
2005AB O C H 2011-06-22.44368 1.000E-05 20:56:41.170 1.500E-01 0.500 F -0.135 0.200 -14° 23' 54.80" 1.000E-01 0.500 F 0.322 -0.270 20.8 V 0.70 0.04 o 691 0.68 Yes Yes
2001LC O C H 2011-06-22.45376 1.000E-05 21:00:06.100 1.500E-01 0.500 F -0.173 0.523 -15° 28' 28.20" 1.000E-01 0.500 F 0.271 -0.894 o 691 2.08 Yes No
Zao O C 2011-06-22.45624 1.000E-05 21:06:23.180 1.500E-01 0.500 F -0.058 -0.316 -15° 42' 01.30" 1.000E-01 0.500 F 0.206 0.010 19.6 V 0.70 0.36 o 691 0.63 Yes Yes
2003RX7 O C H 2011-06-23.30588 1.000E-05 21:04:41.590 1.500E-01 0.500 F 0.001 0.392 +00° 59' 48.90" 1.000E-01 0.500 F 0.156 -1.183 o 691 2.50 Yes No
2003RX7 O C H 2011-06-23.32360 1.000E-05 21:04:40.510 1.500E-01 0.500 F 0.001 0.143 +01° 00' 00.90" 1.000E-01 0.500 F 0.156 -0.295 o 691 0.66 Yes No
2003RX7 O C H 2011-06-23.34132 1.000E-05 21:04:39.400 1.500E-01 0.500 F 0.001 -0.463 +01° 00' 12.30" 1.000E-01 0.500 F 0.156 0.000 20.4 V 0.70 0.15 o 691 0.93 Yes Yes
2007YF1 O C 2011-06-23.35145 1.000E-05 21:00:17.310 1.500E-01 0.500 F 0.090 -0.254 -10° 42' 13.30" 1.000E-01 0.500 F 0.292 -0.311 20.9 V 0.70 -0.46 o 691 0.81 Yes Yes
Jason O C H 2011-06-23.35642 1.000E-05 21:14:27.270 1.500E-01 0.500 F 0.055 -0.586 -11° 03' 54.40" 1.000E-01 0.500 F 0.190 -0.560 o 691 1.62 Yes No
2007YF1 O C 2011-06-23.36922 1.000E-05 21:00:17.530 1.500E-01 0.500 F 0.090 -0.533 -10° 42' 19.00" 1.000E-01 0.500 F 0.292 -0.261 21.6 V 0.70 0.24 o 691 1.19 Yes Yes
Jason O C H 2011-06-23.37419 1.000E-05 21:14:26.530 1.500E-01 0.500 F 0.055 0.771 -11° 03' 57.20" 1.000E-01 0.500 F 0.190 -0.389 o 691 1.73 Yes No
2007YF1 O C 2011-06-23.38700 1.000E-05 21:00:17.810 1.500E-01 0.500 F 0.090 0.110 -10° 42' 24.70" 1.000E-01 0.500 F 0.292 -0.216 21.1 V 0.70 -0.26 o 691 0.49 Yes Yes
Jason O C H 2011-06-23.39197 1.000E-05 21:14:25.600 1.500E-01 0.500 F 0.055 -0.638 -11° 04' 00.00" 1.000E-01 0.500 F 0.190 -0.222 20.8 V 0.70 -0.26 o 691 1.35 Yes Yes
2011KP17 O C 2011-06-24.18357 1.000E-05 16:09:35.590 1.500E-01 0.500 F 0.163 -0.056 +05° 49' 00.00" 1.000E-01 0.500 F 0.194 -0.064 18.8 V 0.70 0.20 o 691 0.17 Yes Yes
2011KP17 O C 2011-06-24.20193 1.000E-05 16:09:32.860 1.500E-01 0.500 F 0.163 -0.046 +05° 49' 21.50" 1.000E-01 0.500 F 0.194 -0.181 18.8 V 0.70 0.20 o 691 0.38 Yes Yes
2011KP17 O C 2011-06-24.22028 1.000E-05 16:09:30.140 1.500E-01 0.500 F 0.163 0.149 +05° 49' 43.10" 1.000E-01 0.500 F 0.194 -0.152 19.7 V 0.70 1.10 o 691 0.43 Yes Yes

[1-200] [201-400] [401-600] [601-800] [801-1000] [1001-1200] [1201-1400] [1401-1600] [1601-1800] [1801-2000] [2001-2200] [2201-2400] [2401-2600] [2601-2800] [2801-3000] [3001-3200] [3201-3400] [3401-3600] [3601-3800] [3801-4000] [4001-4200] [4201-4400] [4401-4600] [4601-4800] [4801-5000] [5001-5200] [5201-5400] [5401-5600] [5601-5800] [5801-6000] [6001-6200] [6201-6400] [6401-6600] [6601-6800] [6801-7000] [7001-7200] [7201-7400] [7401-7600] [7601-7800] [7801-8000] [8001-8200] [8201-8400] [8401-8600] [8601-8800] [8801-9000] [9001-9200] [9201-9400] [9401-9600] [9601-9800] [9801-10000] [10001-10200] [10201-10400] [10401-10600] [10601-10800] [10801-11000] [11001-11200] [11201-11400] [11401-11600] [11601-11800] [11801-12000] [12001-12200] [12201-12400] [12401-12600] [12601-12800] [12801-13000] [13001-13200] [13201-13400] [13401-13600] [13601-13800] [13801-14000] [14001-14200] [14201-14400] [14401-14600] [14601-14800] [14801-15000] [15001-15200] [15201-15400] [15401-15600] [15601-15800] [15801-16000] [16001-16200] [16201-16400] [16401-16600] [16601-16800] [16801-17000] [17001-17200] [17201-17400] [17401-17600] [17601-17800] [17801-18000] [18001-18200] [18201-18400] [18401-18600] [18601-18800] [18801-19000] [19001-19200] [19201-19400] [19401-19600] [19601-19800] [19801-20000] [20001-20200] [20201-20400] [20401-20600] [20601-20800] [20801-21000] [21001-21200] [21201-21400] [21401-21600] [21601-21800] [21801-22000] [22001-22200] [22201-22400] [22401-22600] [22601-22800] [22801-23000] [23001-23200] [23201-23400] [23401-23600] [23601-23800] [23801-24000] [24001-24200] [24201-24400] [24401-24600] [24601-24800] [24801-25000] [25001-25200] [25201-25400] [25401-25600] [25601-25800] [25801-26000] [26001-26200] [26201-26400] [26401-26600] [26601-26800] [26801-27000] [27001-27200] [27201-27400] [27401-27600] [27601-27800] [27801-28000] [28001-28200] [28201-28400] [28401-28600] [28601-28800] [28801-29000] [29001-29200] [29201-29400] [29401-29600] [29601-29800] [29801-30000] [30001-30200] [30201-30400] [30401-30600] [30601-30800] [30801-31000] [31001-31200] [31201-31400] [31401-31600] [31601-31800] [31801-32000] [32001-32200] [32201-32400] [32401-32600] [32601-32800] [32801-33000] [33001-33200] [33201-33400] [33401-33600] [33601-33800] [33801-34000] [34001-34200] [34201-34400] [34401-34600] [34601-34800] [34801-35000] [35001-35200] [35201-35400] [35401-35600] [35601-35800] [35801-36000] [36001-36200] [36201-36400] [36401-36600] [36601-36800] [36801-37000] [37001-37200] [37201-37400] [37401-37600] [37601-37800] [37801-38000] [38001-38200] [38201-38400] [38401-38600] [38601-38800] [38801-39000] [39001-39200] [39201-39400] [39401-39600] [39601-39800] [39801-40000] [40001-40200] [40201-40400] [40401-40600] [40601-40800] [40801-41000] [41001-41200] [41201-41400] [41401-41600] [41601-41800] [41801-42000] [42001-42200] [42201-42400] [42401-42600] [42601-42800] [42801-43000] [43001-43200] [43201-43400] [43401-43600] [43601-43800] [43801-44000] [44001-44200] [44201-44400] [44401-44600] [44601-44800] [44801-45000] [45001-45200] [45201-45400] [45401-45600] [45601-45800] [45801-46000] [46001-46200] [46201-46400] [46401-46600] [46601-46800] [46801-47000] [47001-47200] [47201-47400] [47401-47600] [47601-47800] [47801-48000] [48001-48200] [48201-48400] [48401-48600] [48601-48800] [48801-49000] [49001-49200] [49201-49400] [49401-49600] [49601-49800] [49801-50000] [50001-50200] [50201-50388]